createdAt,value
2022-08-02T00:00:08.885Z,3.27
2022-08-02T00:02:35.407Z,3.10
2022-08-02T00:05:02.007Z,2.90
2022-08-02T00:07:28.591Z,3.27
2022-08-02T00:09:55.081Z,3.20
2022-08-02T00:12:21.949Z,3.33
2022-08-02T00:14:48.817Z,3.43
2022-08-02T00:17:15.311Z,3.30
2022-08-02T00:19:41.835Z,3.63
2022-08-02T00:22:08.879Z,3.27
2022-08-02T00:24:35.739Z,2.80
2022-08-02T00:27:03.891Z,3.20
2022-08-02T00:29:42.733Z,3.40
2022-08-02T00:32:20.038Z,3.47
2022-08-02T00:34:46.674Z,2.80
2022-08-02T00:37:13.254Z,3.00
2022-08-02T00:39:39.913Z,2.90
2022-08-02T00:42:06.625Z,3.00
2022-08-02T00:44:33.173Z,3.20
2022-08-02T00:46:59.904Z,2.87
2022-08-02T00:49:26.512Z,2.80
2022-08-02T00:51:53.390Z,2.77
2022-08-02T00:54:20.739Z,3.10
2022-08-02T00:56:50.953Z,2.73
2022-08-02T00:59:18.283Z,2.93
2022-08-02T01:01:57.411Z,3.10
2022-08-02T01:04:30.953Z,3.17
2022-08-02T01:07:00.065Z,3.20
2022-08-02T01:09:26.799Z,3.30
2022-08-02T01:11:53.539Z,3.70
2022-08-02T01:14:20.333Z,3.60
2022-08-02T01:16:52.876Z,3.67
2022-08-02T01:19:48.609Z,3.40
2022-08-02T01:23:00.634Z,4.27
2022-08-02T01:26:12.231Z,3.67
2022-08-02T01:28:54.848Z,4.17
2022-08-02T01:31:32.733Z,3.77
2022-08-02T01:34:05.228Z,4.10
2022-08-02T01:36:38.726Z,3.87
2022-08-02T01:39:06.345Z,3.67
2022-08-02T01:41:33.236Z,4.40
2022-08-02T01:44:00.888Z,3.90
2022-08-02T01:46:29.561Z,4.00
2022-08-02T01:48:57.974Z,3.40
2022-08-02T01:51:46.255Z,3.80
2022-08-02T01:54:15.773Z,3.97
2022-08-02T01:56:42.770Z,4.10
2022-08-02T01:59:11.968Z,4.60
2022-08-02T02:01:39.921Z,4.03
2022-08-02T02:04:08.436Z,3.70
2022-08-02T02:06:36.578Z,4.30
2022-08-02T02:09:03.957Z,4.50
2022-08-02T02:12:11.896Z,4.03
2022-08-02T02:14:17.907Z,3.80
2022-08-02T02:16:46.949Z,4.10
2022-08-02T02:19:14.257Z,4.17
2022-08-02T02:21:48.001Z,4.20
2022-08-02T02:24:14.565Z,4.57
2022-08-02T02:26:47.109Z,4.03
2022-08-02T02:29:20.726Z,4.23
2022-08-02T02:31:48.553Z,3.77
2022-08-02T02:34:17.356Z,4.03
2022-08-02T02:36:49.821Z,3.97
2022-08-02T02:39:17.737Z,3.80
2022-08-02T02:41:44.642Z,3.60
2022-08-02T02:44:14.087Z,4.23
2022-08-02T02:46:41.079Z,3.73
2022-08-02T02:49:10.498Z,3.67
2022-08-02T02:51:39.950Z,3.77
2022-08-02T02:54:30.060Z,3.13
2022-08-02T02:56:54.477Z,3.20
2022-08-02T02:59:21.250Z,3.10
2022-08-02T03:01:56.714Z,3.30
2022-08-02T03:04:25.179Z,2.70
2022-08-02T03:06:51.748Z,3.27
2022-08-02T03:09:18.288Z,3.10
2022-08-02T03:11:45.105Z,3.40
2022-08-02T03:14:12.520Z,3.23
2022-08-02T03:16:47.332Z,3.20
2022-08-02T03:19:14.356Z,3.00
2022-08-02T03:21:42.328Z,2.87
2022-08-02T03:24:09.190Z,2.83
2022-08-02T03:26:35.923Z,2.80
2022-08-02T03:29:09.993Z,2.93
2022-08-02T03:31:40.402Z,2.90
2022-08-02T03:34:07.138Z,3.30
2022-08-02T03:36:34.902Z,3.43
2022-08-02T03:39:02.092Z,3.00
2022-08-02T03:41:29.455Z,3.00
2022-08-02T03:43:56.675Z,2.90
2022-08-02T03:46:25.059Z,3.07
2022-08-02T03:48:52.520Z,2.83
2022-08-02T03:51:20.352Z,3.33
2022-08-02T03:53:48.518Z,3.60
2022-08-02T03:56:15.834Z,3.30
2022-08-02T03:58:45.775Z,3.80
2022-08-02T04:01:15.627Z,4.33
2022-08-02T04:03:42.192Z,4.10
2022-08-02T04:06:08.700Z,4.53
2022-08-02T04:08:38.357Z,4.70
2022-08-02T04:11:24.541Z,3.60
2022-08-02T04:13:51.177Z,4.57
2022-08-02T04:16:22.962Z,4.90
2022-08-02T04:19:02.668Z,4.60
2022-08-02T04:21:50.302Z,4.70
2022-08-02T04:24:21.103Z,4.30
2022-08-02T04:26:52.883Z,4.97
2022-08-02T04:29:19.913Z,4.83
2022-08-02T04:31:46.537Z,4.30
2022-08-02T04:34:15.307Z,4.97
2022-08-02T04:36:42.152Z,4.73
2022-08-02T04:39:08.730Z,4.77
2022-08-02T04:41:43.973Z,4.97
2022-08-02T04:44:11.710Z,4.67
2022-08-02T04:46:38.524Z,4.43
2022-08-02T04:49:05.302Z,5.00
2022-08-02T04:51:38.673Z,5.00
2022-08-02T04:54:09.621Z,4.70
2022-08-02T04:56:37.994Z,4.60
2022-08-02T04:59:04.774Z,4.90
2022-08-02T05:01:31.270Z,4.97
2022-08-02T05:03:57.822Z,4.60
2022-08-02T05:06:24.558Z,4.17
2022-08-02T05:08:53.045Z,4.80
2022-08-02T05:11:21.465Z,4.77
2022-08-02T05:13:58.092Z,5.20
2022-08-02T05:16:30.957Z,5.23
2022-08-02T05:18:59.209Z,4.70
2022-08-02T05:21:25.680Z,4.93
2022-08-02T05:23:52.185Z,4.50
2022-08-02T05:26:18.742Z,4.70
2022-08-02T05:28:45.209Z,4.90
2022-08-02T05:31:12.398Z,4.60
2022-08-02T05:33:40.113Z,4.47
2022-08-02T05:36:06.990Z,4.30
2022-08-02T05:38:36.930Z,4.77
2022-08-02T05:41:04.711Z,4.27
2022-08-02T05:43:31.198Z,3.83
2022-08-02T05:45:57.699Z,3.93
2022-08-02T05:48:27.829Z,4.10
2022-08-02T05:51:04.104Z,4.17
2022-08-02T05:53:47.591Z,3.90
2022-08-02T05:56:25.534Z,3.60
2022-08-02T05:59:05.565Z,3.57
2022-08-02T06:01:36.864Z,3.50
2022-08-02T06:04:07.406Z,3.03
2022-08-02T06:06:35.127Z,3.83
2022-08-02T06:09:06.716Z,3.20
2022-08-02T06:12:00.679Z,3.60
2022-08-02T06:14:32.158Z,2.90
2022-08-02T06:16:59.424Z,3.50
2022-08-02T06:19:26.247Z,2.97
2022-08-02T06:22:40.563Z,3.40
2022-08-02T06:24:39.516Z,3.07
2022-08-02T06:27:06.544Z,3.20
2022-08-02T06:29:38.460Z,2.73
2022-08-02T06:32:07.258Z,2.87
2022-08-02T06:34:38.378Z,3.00
2022-08-02T06:37:13.612Z,2.87
2022-08-02T06:39:49.463Z,3.47
2022-08-02T06:42:27.153Z,2.70
2022-08-02T06:44:57.703Z,3.07
2022-08-02T06:47:24.740Z,2.87
2022-08-02T06:49:54.220Z,2.70
2022-08-02T06:52:27.863Z,3.00
2022-08-02T06:54:59.462Z,3.13
2022-08-02T06:57:27.242Z,3.03
2022-08-02T06:59:53.800Z,2.40
2022-08-02T07:02:20.387Z,2.87
2022-08-02T07:04:46.908Z,2.93
2022-08-02T07:07:13.518Z,2.93
2022-08-02T07:09:40.015Z,2.80
2022-08-02T07:12:23.832Z,2.77
2022-08-02T07:14:50.296Z,2.97
2022-08-02T07:17:16.968Z,2.70
2022-08-02T07:19:43.557Z,3.03
2022-08-02T07:22:10.339Z,2.40
2022-08-02T07:24:36.862Z,2.67
2022-08-02T07:27:12.244Z,2.40
2022-08-02T07:29:46.661Z,2.97
2022-08-02T07:32:26.388Z,2.53
2022-08-02T07:34:54.250Z,2.20
2022-08-02T07:37:35.183Z,2.47
2022-08-02T07:40:20.524Z,2.30
2022-08-02T07:42:54.558Z,2.47
2022-08-02T07:45:23.837Z,2.80
2022-08-02T07:47:50.833Z,2.63
2022-08-02T07:50:19.514Z,3.00
2022-08-02T07:52:46.537Z,3.03
2022-08-02T07:55:14.281Z,2.40
2022-08-02T07:57:45.814Z,2.70
2022-08-02T08:00:13.747Z,2.53
2022-08-02T08:02:40.602Z,2.20
2022-08-02T08:05:07.669Z,2.33
2022-08-02T08:07:34.898Z,2.50
2022-08-02T08:10:01.669Z,2.47
2022-08-02T08:12:28.196Z,2.17
2022-08-02T08:14:54.661Z,2.07
2022-08-02T08:17:21.589Z,2.10
2022-08-02T08:19:51.211Z,2.60
2022-08-02T08:22:18.467Z,2.40
2022-08-02T08:24:45.418Z,2.10
2022-08-02T08:27:14.734Z,2.20
2022-08-02T08:29:44.666Z,2.13
2022-08-02T08:32:16.325Z,2.13
2022-08-02T08:34:44.014Z,2.20
2022-08-02T08:37:17.874Z,2.43
2022-08-02T08:39:56.802Z,1.90
2022-08-02T08:42:27.366Z,2.43
2022-08-02T08:44:57.984Z,2.20
2022-08-02T08:47:34.575Z,1.90
2022-08-02T08:50:11.578Z,2.23
2022-08-02T08:53:04.192Z,2.00
2022-08-02T08:55:32.294Z,2.07
2022-08-02T08:58:00.469Z,2.20
2022-08-02T09:00:27.662Z,1.70
2022-08-02T09:02:54.242Z,1.97
2022-08-02T09:05:20.826Z,2.07
2022-08-02T09:07:48.644Z,1.90
2022-08-02T09:10:41.175Z,2.13
2022-08-02T09:13:39.066Z,1.63
2022-08-02T09:16:11.292Z,2.30
2022-08-02T09:18:41.611Z,2.30
2022-08-02T09:21:09.006Z,2.33
2022-08-02T09:23:40.545Z,2.10
2022-08-02T09:26:25.358Z,1.80
2022-08-02T09:28:53.139Z,1.73
2022-08-02T09:31:23.839Z,2.00
2022-08-02T09:33:52.813Z,2.10
2022-08-02T09:36:19.418Z,1.70
2022-08-02T09:39:03.597Z,1.73
2022-08-02T09:41:31.863Z,2.00
2022-08-02T09:44:04.900Z,1.83
2022-08-02T09:46:43.230Z,1.83
2022-08-02T09:49:18.141Z,1.67
2022-08-02T09:51:52.967Z,1.80
2022-08-02T09:54:23.297Z,1.80
2022-08-02T09:56:52.003Z,1.57
2022-08-02T09:59:20.295Z,1.80
2022-08-02T10:01:51.266Z,2.20
2022-08-02T10:04:29.981Z,1.90
2022-08-02T10:06:59.548Z,2.10
2022-08-02T10:09:28.774Z,1.93
2022-08-02T10:11:55.485Z,1.80
2022-08-02T10:14:22.038Z,1.90
2022-08-02T10:16:48.594Z,2.03
2022-08-02T10:19:16.257Z,1.70
2022-08-02T10:22:08.914Z,1.60
2022-08-02T10:24:38.108Z,2.00
2022-08-02T10:27:05.496Z,1.97
2022-08-02T10:29:50.425Z,1.57
2022-08-02T10:32:25.502Z,2.17
2022-08-02T10:34:55.641Z,1.97
2022-08-02T10:37:28.593Z,2.03
2022-08-02T10:39:57.152Z,1.97
2022-08-02T10:42:48.319Z,1.70
2022-08-02T10:45:17.269Z,1.77
2022-08-02T10:48:02.927Z,1.97
2022-08-02T10:51:02.689Z,1.70
2022-08-02T10:53:31.036Z,1.80
2022-08-02T10:56:00.105Z,1.70
2022-08-02T10:58:30.434Z,2.03
2022-08-02T11:00:58.959Z,2.20
2022-08-02T11:03:39.406Z,2.00
2022-08-02T11:06:08.978Z,2.10
2022-08-02T11:08:51.355Z,1.80
2022-08-02T11:11:19.373Z,1.50
2022-08-02T11:14:09.669Z,1.33
2022-08-02T11:16:55.066Z,1.60
2022-08-02T11:19:22.378Z,1.70
2022-08-02T11:22:10.947Z,1.60
2022-08-02T11:24:39.138Z,1.50
2022-08-02T11:27:07.350Z,1.70
2022-08-02T11:29:44.405Z,1.73
2022-08-02T11:32:31.179Z,1.50
2022-08-02T11:34:58.912Z,1.50
2022-08-02T11:37:36.367Z,1.53
2022-08-02T11:40:13.324Z,1.50
2022-08-02T11:42:50.430Z,1.23
2022-08-02T11:45:21.515Z,1.90
2022-08-02T11:47:52.456Z,1.40
2022-08-02T11:50:29.677Z,1.40
2022-08-02T11:52:57.136Z,1.70
2022-08-02T11:55:31.182Z,1.80
2022-08-02T11:58:04.657Z,1.93
2022-08-02T12:00:31.820Z,1.17
2022-08-02T12:02:58.397Z,1.70
2022-08-02T12:05:51.352Z,1.53
2022-08-02T12:08:11.711Z,1.40
2022-08-02T12:10:47.791Z,1.47
2022-08-02T12:13:14.445Z,1.70
2022-08-02T12:15:45.682Z,1.30
2022-08-02T12:18:33.701Z,1.70
2022-08-02T12:21:00.417Z,1.40
2022-08-02T12:23:27.752Z,1.43
2022-08-02T12:26:05.546Z,1.50
2022-08-02T12:28:39.172Z,1.60
2022-08-02T12:31:18.746Z,1.70
2022-08-02T12:33:51.711Z,1.40
2022-08-02T12:36:20.058Z,1.47
2022-08-02T12:38:53.198Z,1.60
2022-08-02T12:41:30.205Z,1.60
2022-08-02T12:43:59.392Z,1.80
2022-08-02T12:46:26.010Z,1.57
2022-08-02T12:49:16.941Z,1.30
2022-08-02T12:51:56.630Z,1.73
2022-08-02T12:54:30.696Z,1.30
2022-08-02T12:56:59.018Z,1.63
2022-08-02T12:59:39.619Z,1.83
2022-08-02T13:02:08.894Z,1.70
2022-08-02T13:04:35.889Z,1.70
2022-08-02T13:07:02.965Z,1.40
2022-08-02T13:09:36.241Z,1.73
2022-08-02T13:12:03.483Z,1.70
2022-08-02T13:14:30.018Z,1.37
2022-08-02T13:16:56.745Z,1.63
2022-08-02T13:19:23.270Z,1.63
2022-08-02T13:22:02.509Z,1.70
2022-08-02T13:24:41.208Z,1.60
2022-08-02T13:27:23.572Z,2.00
2022-08-02T13:29:50.877Z,2.00
2022-08-02T13:32:17.795Z,1.80
2022-08-02T13:34:44.465Z,1.60
2022-08-02T13:37:11.029Z,1.60
2022-08-02T13:39:37.545Z,1.40
2022-08-02T13:42:04.194Z,1.80
2022-08-02T13:44:32.926Z,1.50
2022-08-02T13:46:59.422Z,1.73
2022-08-02T13:49:51.290Z,1.70
2022-08-02T13:52:13.019Z,1.63
2022-08-02T13:54:40.077Z,1.53
2022-08-02T13:57:06.629Z,1.60
2022-08-02T13:59:57.505Z,1.73
2022-08-02T14:02:19.680Z,1.93
2022-08-02T14:04:46.379Z,1.53
2022-08-02T14:07:12.962Z,1.67
2022-08-02T14:09:40.452Z,1.80
2022-08-02T14:12:09.714Z,1.77
2022-08-02T14:14:36.759Z,1.70
2022-08-02T14:17:03.303Z,1.67
2022-08-02T14:19:29.777Z,1.53
2022-08-02T14:22:11.243Z,1.80
2022-08-02T14:24:40.091Z,1.27
2022-08-02T14:27:06.611Z,1.50
2022-08-02T14:29:33.271Z,1.70
2022-08-02T14:31:59.780Z,1.57
2022-08-02T14:34:26.271Z,1.80
2022-08-02T14:36:54.018Z,1.90
2022-08-02T14:39:21.153Z,1.70
2022-08-02T14:41:58.989Z,1.53
2022-08-02T14:44:28.116Z,1.60
2022-08-02T14:46:54.858Z,1.80
2022-08-02T14:49:24.738Z,1.70
2022-08-02T14:51:56.659Z,1.70
2022-08-02T14:54:27.686Z,1.53
2022-08-02T14:57:02.719Z,1.73
2022-08-02T14:59:29.824Z,1.97
2022-08-02T15:01:56.365Z,1.50
2022-08-02T15:04:22.945Z,1.77
2022-08-02T15:06:49.617Z,1.70
2022-08-02T15:09:16.088Z,1.80
2022-08-02T15:11:47.434Z,1.80
2022-08-02T15:14:15.175Z,1.80
2022-08-02T15:16:55.556Z,1.50
2022-08-02T15:19:22.856Z,1.70
2022-08-02T15:21:54.457Z,1.73
2022-08-02T15:24:21.338Z,2.00
2022-08-02T15:26:48.394Z,1.80
2022-08-02T15:29:14.858Z,2.03
2022-08-02T15:31:41.911Z,1.97
2022-08-02T15:34:08.676Z,1.90
2022-08-02T15:36:35.217Z,2.17
2022-08-02T15:39:02.004Z,2.00
2022-08-02T15:41:28.499Z,1.80
2022-08-02T15:44:00.847Z,2.17
2022-08-02T15:46:32.097Z,2.20
2022-08-02T15:48:58.898Z,1.97
2022-08-02T15:51:26.595Z,1.73
2022-08-02T15:53:53.087Z,1.87
2022-08-02T15:56:23.887Z,2.00
2022-08-02T15:58:51.913Z,1.90
2022-08-02T16:01:24.024Z,2.20
2022-08-02T16:03:50.651Z,2.07
2022-08-02T16:06:17.263Z,3.00
2022-08-02T16:08:51.662Z,3.23
2022-08-02T16:11:22.519Z,2.50
2022-08-02T16:13:55.112Z,2.90
2022-08-02T16:16:26.583Z,2.80
2022-08-02T16:18:53.216Z,3.10
2022-08-02T16:21:19.804Z,2.10
2022-08-02T16:23:59.134Z,2.10
2022-08-02T16:26:31.239Z,1.93
2022-08-02T16:28:58.476Z,2.13
2022-08-02T16:31:24.964Z,2.13
2022-08-02T16:33:55.982Z,2.20
2022-08-02T16:36:25.119Z,2.10
2022-08-02T16:38:52.912Z,2.20
2022-08-02T16:41:20.363Z,2.33
2022-08-02T16:43:46.914Z,1.90
2022-08-02T16:46:13.609Z,2.60
2022-08-02T16:48:40.468Z,2.43
2022-08-02T16:51:13.709Z,2.70
2022-08-02T16:54:00.537Z,2.43
2022-08-02T16:56:30.061Z,2.30
2022-08-02T16:58:59.627Z,3.90
2022-08-02T17:01:27.579Z,3.30
2022-08-02T17:03:56.305Z,2.30
2022-08-02T17:09:10.488Z,2.30
2022-08-02T17:11:41.676Z,2.23
2022-08-02T17:14:13.342Z,2.20
2022-08-02T17:16:39.860Z,2.67
2022-08-02T17:19:06.910Z,2.43
2022-08-02T17:21:34.052Z,2.30
2022-08-02T17:24:05.031Z,2.20
2022-08-02T17:26:36.897Z,2.27
2022-08-02T17:29:14.101Z,1.97
2022-08-02T17:32:02.482Z,2.10
2022-08-02T17:34:30.927Z,2.20
2022-08-02T17:36:57.666Z,2.10
2022-08-02T17:39:24.287Z,2.80
2022-08-02T17:42:00.159Z,2.20
2022-08-02T17:44:37.722Z,2.17
2022-08-02T17:47:07.278Z,2.13
2022-08-02T17:49:42.727Z,2.10
2022-08-02T17:52:49.148Z,2.03
2022-08-02T17:54:57.920Z,2.20
2022-08-02T17:57:24.444Z,2.10
2022-08-02T18:00:11.636Z,2.10
2022-08-02T18:02:38.993Z,2.27
2022-08-02T18:05:05.891Z,2.43
2022-08-02T18:07:50.895Z,2.10
2022-08-02T18:10:20.777Z,2.30
2022-08-02T18:12:50.414Z,2.30
2022-08-02T18:15:20.039Z,1.90
2022-08-02T18:17:46.856Z,2.10
2022-08-02T18:20:13.420Z,2.00
2022-08-02T18:22:43.064Z,2.10
2022-08-02T18:25:11.546Z,1.80
2022-08-02T18:27:57.979Z,1.93
2022-08-02T18:30:28.483Z,2.07
2022-08-02T18:33:57.332Z,2.20
2022-08-02T18:35:42.835Z,2.00
2022-08-02T18:38:11.033Z,2.23
2022-08-02T18:40:38.549Z,2.53
2022-08-02T18:43:07.000Z,2.53
2022-08-02T18:46:04.857Z,2.33
2022-08-02T18:48:21.240Z,2.20
2022-08-02T18:50:48.442Z,2.43
2022-08-02T18:53:39.041Z,2.33
2022-08-02T18:56:06.875Z,2.73
2022-08-02T18:58:34.949Z,2.10
2022-08-02T19:01:05.054Z,2.40
2022-08-02T19:03:41.649Z,2.33
2022-08-02T19:06:19.581Z,2.27
2022-08-02T19:08:47.350Z,2.10
2022-08-02T19:11:35.118Z,2.27
2022-08-02T19:14:02.109Z,2.20
2022-08-02T19:16:37.764Z,2.50
2022-08-02T19:19:05.873Z,2.30
2022-08-02T19:22:17.583Z,2.33
2022-08-02T19:24:21.761Z,2.20
2022-08-02T19:26:52.088Z,2.40
2022-08-02T19:29:25.205Z,2.63
2022-08-02T19:32:40.791Z,2.50
2022-08-02T19:34:53.332Z,2.40
2022-08-02T19:37:21.071Z,2.80
2022-08-02T19:39:47.758Z,2.20
2022-08-02T19:42:14.764Z,2.40
2022-08-02T19:44:45.048Z,2.30
2022-08-02T19:47:12.482Z,2.20
2022-08-02T19:49:46.390Z,2.20
2022-08-02T19:52:21.556Z,2.40
2022-08-02T19:54:55.704Z,2.07
2022-08-02T19:57:23.422Z,2.70
2022-08-02T19:59:52.347Z,2.53
2022-08-02T20:02:19.382Z,2.37
2022-08-02T20:04:50.412Z,2.53
2022-08-02T20:07:48.217Z,2.40
2022-08-02T20:10:10.985Z,2.30
2022-08-02T20:12:39.255Z,2.20
2022-08-02T20:15:07.881Z,2.20
2022-08-02T20:17:43.613Z,2.30
2022-08-02T20:20:15.101Z,2.17
2022-08-02T20:23:00.819Z,2.00
2022-08-02T20:25:48.161Z,2.53
2022-08-02T20:28:15.484Z,2.50
2022-08-02T20:30:42.342Z,2.37
2022-08-02T20:33:20.972Z,2.30
2022-08-02T20:35:49.559Z,2.60
2022-08-02T20:38:16.506Z,2.27
2022-08-02T20:40:43.453Z,2.50
2022-08-02T20:43:10.442Z,2.20
2022-08-02T20:45:37.471Z,2.50
2022-08-02T20:48:04.385Z,2.50
2022-08-02T20:50:49.295Z,2.70
2022-08-02T20:53:23.187Z,2.97
2022-08-02T20:55:53.954Z,2.60
2022-08-02T20:58:21.106Z,2.40
2022-08-02T21:00:57.867Z,2.33
2022-08-02T21:03:24.432Z,2.33
2022-08-02T21:06:04.494Z,2.87
2022-08-02T21:08:30.978Z,2.37
2022-08-02T21:10:57.463Z,2.60
2022-08-02T21:13:25.955Z,2.30
2022-08-02T21:15:55.122Z,2.20
2022-08-02T21:18:26.562Z,2.40
2022-08-02T21:21:05.005Z,2.70
2022-08-02T21:23:36.523Z,2.10
2022-08-02T21:26:03.510Z,2.60
2022-08-02T21:28:35.030Z,2.60
2022-08-02T21:31:10.622Z,2.50
2022-08-02T21:33:56.708Z,2.10
2022-08-02T21:36:25.035Z,2.30
2022-08-02T21:38:58.111Z,2.70
2022-08-02T21:41:24.564Z,2.40
2022-08-02T21:44:06.902Z,2.33
2022-08-02T21:46:33.450Z,2.33
2022-08-02T21:49:01.502Z,2.60
2022-08-02T21:51:28.135Z,2.27
2022-08-02T21:54:18.474Z,2.47
2022-08-02T21:56:42.118Z,2.50
2022-08-02T21:59:15.811Z,2.27
2022-08-02T22:01:52.945Z,2.57
2022-08-02T22:04:20.383Z,2.70
2022-08-02T22:06:47.086Z,2.80
2022-08-02T22:09:17.419Z,2.87
2022-08-02T22:12:02.950Z,2.20
2022-08-02T22:14:29.407Z,2.43
2022-08-02T22:16:56.172Z,2.73
2022-08-02T22:19:22.730Z,2.63
2022-08-02T22:21:55.611Z,3.03
2022-08-02T22:24:29.890Z,2.67
2022-08-02T22:26:57.349Z,2.70
2022-08-02T22:29:23.854Z,2.33
2022-08-02T22:31:50.399Z,2.57
2022-08-02T22:37:07.418Z,2.30
2022-08-02T22:39:34.613Z,2.67
2022-08-02T22:42:06.952Z,2.30
2022-08-02T22:44:34.950Z,2.63
2022-08-02T22:47:13.904Z,2.63
2022-08-02T22:49:51.683Z,2.30
2022-08-02T22:52:22.831Z,2.63
2022-08-02T22:54:50.835Z,2.60
2022-08-02T22:57:30.192Z,2.40
2022-08-02T22:58:50.747Z,2.10
2022-08-02T22:59:09.518Z,2.50
2022-08-02T22:59:58.902Z,2.60
2022-08-02T23:02:25.456Z,2.50
2022-08-02T23:04:52.122Z,2.70
2022-08-02T23:07:18.691Z,2.70
2022-08-02T23:09:45.185Z,2.67
2022-08-02T23:12:11.641Z,2.40
2022-08-02T23:14:38.157Z,2.73
2022-08-02T23:17:23.241Z,2.50
2022-08-02T23:19:52.634Z,3.47
2022-08-02T23:22:29.255Z,2.60
2022-08-02T23:24:57.311Z,3.00
2022-08-02T23:27:23.774Z,2.80
2022-08-02T23:29:50.369Z,3.03
2022-08-02T23:32:17.537Z,2.80
2022-08-02T23:34:44.380Z,2.87
2022-08-02T23:37:11.889Z,2.77
2022-08-02T23:39:38.501Z,2.67
2022-08-02T23:42:05.324Z,3.20
2022-08-02T23:44:31.815Z,2.90
2022-08-02T23:47:00.298Z,2.87
2022-08-02T23:49:27.815Z,2.90
2022-08-02T23:52:01.246Z,2.77
2022-08-02T23:54:28.851Z,3.27
2022-08-02T23:56:55.746Z,3.53
2022-08-02T23:59:22.518Z,2.80
